Time;durP1;ratioP1;P1;durP2;ratioP2;P2;SDS_P1;SDS_P2;PMS_P1;PMS_P2;Temp;Humidity;BMP_temperature;BMP_pressure;BME280_temperature;BME280_humidity;BME280_pressure;Samples;Min_cycle;Max_cycle;Signal;HPM_P1;HPM_P2
2022/03/07 00:00:00;;;;;;;23.35;7.30;;;;;;;-1.17;74.63;102573.13;5052141;28;20071;-78
2022/03/07 00:02:25;;;;;;;20.42;7.93;;;;;;;-1.20;74.70;102580.13;5041012;28;20040;-78
2022/03/07 00:04:50;;;;;;;20.45;7.43;;;;;;;-1.22;74.69;102577.50;5053602;28;20705;-78
2022/03/07 00:07:15;;;;;;;21.80;7.40;;;;;;;-1.23;75.22;102570.44;5014102;28;20061;-78
2022/03/07 00:09:41;;;;;;;20.58;7.25;;;;;;;-1.23;74.89;102573.09;5048192;28;20028;-78
2022/03/07 00:12:06;;;;;;;22.73;7.85;;;;;;;-1.28;74.78;102573.06;5051152;28;20033;-78
2022/03/07 00:14:32;;;;;;;19.88;7.05;;;;;;;-1.31;74.84;102572.19;5034994;28;20033;-78
2022/03/07 00:16:57;;;;;;;20.80;7.78;;;;;;;-1.32;74.26;102576.59;5034937;28;20458;-78
2022/03/07 00:19:22;;;;;;;21.70;7.78;;;;;;;-1.35;75.28;102573.06;5033679;28;20044;-78
2022/03/07 00:21:47;;;;;;;18.98;7.40;;;;;;;-1.38;75.06;102567.75;5050226;28;20044;-78
2022/03/07 00:24:13;;;;;;;16.63;6.35;;;;;;;-1.40;74.77;102578.31;5051618;28;20479;-78
2022/03/07 00:26:38;;;;;;;19.23;7.30;;;;;;;-1.42;74.94;102570.41;5033507;28;20029;-79
2022/03/07 00:29:03;;;;;;;19.88;7.18;;;;;;;-1.42;75.15;102570.41;5033888;28;20041;-78
2022/03/07 00:31:29;;;;;;;19.15;7.10;;;;;;;-1.42;74.76;102574.75;5032807;28;20029;-79
2022/03/07 00:33:54;;;;;;;20.40;7.28;;;;;;;-1.47;74.46;102580.03;5053136;28;20079;-78
2022/03/07 00:36:20;;;;;;;20.15;7.40;;;;;;;-1.50;74.75;102581.78;5035089;28;20037;-78
2022/03/07 00:38:47;;;;;;;19.52;7.72;;;;;;;-1.51;74.30;102585.28;5052597;28;20040;-78
2022/03/07 00:41:12;;;;;;;22.50;8.40;;;;;;;-1.58;75.38;102581.75;5049508;28;20028;-78
2022/03/07 00:43:39;;;;;;;20.00;7.63;;;;;;;-1.59;75.24;102582.63;5033642;28;20041;-78
2022/03/07 00:46:05;;;;;;;19.75;7.78;;;;;;;-1.61;75.63;102581.72;5051578;28;20032;-78
2022/03/07 00:48:30;;;;;;;21.13;6.82;;;;;;;-1.60;75.46;102578.22;5051073;28;20037;-78
2022/03/07 00:50:55;;;;;;;19.98;7.32;;;;;;;-1.60;75.08;102580.84;5050787;28;20516;-78
2022/03/07 00:53:24;;;;;;;20.13;7.90;;;;;;;-1.65;75.23;102575.56;5051048;28;20024;-78
2022/03/07 00:55:50;;;;;;;19.05;7.85;;;;;;;-1.68;75.10;102582.56;5051819;28;20029;-78
2022/03/07 00:58:15;;;;;;;19.92;7.25;;;;;;;-1.69;74.69;102581.69;5033656;28;20106;-78
2022/03/07 01:00:41;;;;;;;21.02;8.52;;;;;;;-1.70;75.03;102586.94;5039852;28;20430;-78
2022/03/07 01:03:10;;;;;;;19.70;7.95;;;;;;;-1.72;75.05;102583.44;5048348;28;20056;-78
2022/03/07 01:05:35;;;;;;;20.80;8.00;;;;;;;-1.73;74.91;102589.56;5052038;28;20586;-78
2022/03/07 01:08:01;;;;;;;19.95;6.90;;;;;;;-1.79;74.69;102587.75;5050942;28;20131;-78
2022/03/07 01:10:26;;;;;;;20.83;7.75;;;;;;;-1.81;75.14;102578.97;5050822;28;20036;-78
2022/03/07 01:12:52;;;;;;;20.60;7.70;;;;;;;-1.86;75.68;102594.78;5050758;28;20033;-78
2022/03/07 01:15:18;;;;;;;21.45;8.07;;;;;;;-1.89;75.73;102600.00;5032676;28;20044;-78
2022/03/07 01:17:43;;;;;;;21.75;7.75;;;;;;;-1.89;76.15;102600.00;5050946;28;20381;-78
2022/03/07 01:20:10;;;;;;;19.42;7.10;;;;;;;-1.91;76.18;102591.22;5032579;28;20036;-78
2022/03/07 01:22:36;;;;;;;22.92;8.70;;;;;;;-1.94;76.14;102589.41;5051832;28;20029;-78
2022/03/07 01:25:04;;;;;;;21.58;8.60;;;;;;;-1.93;76.17;102592.97;5051845;28;20061;-78
2022/03/07 01:27:29;;;;;;;20.63;7.85;;;;;;;-1.96;76.13;102592.94;5032066;28;20074;-78
2022/03/07 01:29:55;;;;;;;21.38;7.80;;;;;;;-1.97;75.54;102588.53;5050689;28;20033;-78
2022/03/07 01:32:21;;;;;;;20.60;7.60;;;;;;;-1.99;75.70;102587.63;5049677;28;20392;-78
2022/03/07 01:34:46;;;;;;;19.75;7.07;;;;;;;-2.01;75.83;102584.97;5040175;28;20029;-78
2022/03/07 01:37:11;;;;;;;16.13;6.63;;;;;;;-2.04;75.78;102589.34;5050133;28;20033;-78
2022/03/07 01:39:36;;;;;;;19.33;7.75;;;;;;;-2.05;76.01;102587.59;5032518;28;20033;-78
2022/03/07 01:42:02;;;;;;;21.17;7.38;;;;;;;-2.08;76.24;102584.94;5050065;28;20512;-78
2022/03/07 01:44:28;;;;;;;18.48;6.93;;;;;;;-2.12;76.33;102584.91;5032325;28;20032;-78
2022/03/07 01:46:55;;;;;;;20.58;8.35;;;;;;;-2.15;76.49;102584.91;5049724;28;20056;-78
2022/03/07 01:49:20;;;;;;;21.58;7.53;;;;;;;-2.18;76.58;102579.59;5032222;28;20067;-78
2022/03/07 01:51:47;;;;;;;20.38;8.25;;;;;;;-2.19;76.66;102580.47;5032342;28;20028;-78
2022/03/07 01:54:15;;;;;;;21.77;7.55;;;;;;;-2.18;76.80;102581.34;5049209;28;20025;-78
2022/03/07 01:56:42;;;;;;;18.95;8.07;;;;;;;-2.17;76.83;102588.38;5038594;28;20033;-78
2022/03/07 01:59:11;;;;;;;20.17;6.88;;;;;;;-2.19;76.71;102580.47;5031904;28;20695;-78
2022/03/07 02:01:36;;;;;;;20.48;9.07;;;;;;;-2.20;76.26;102577.81;5041044;28;20125;-76
2022/03/07 02:04:02;;;;;;;21.42;8.43;;;;;;;-2.21;76.69;102576.06;5031841;28;20200;-77
2022/03/07 02:06:27;;;;;;;18.75;6.63;;;;;;;-2.25;76.57;102575.16;5049684;28;20514;-76
2022/03/07 02:08:54;;;;;;;22.52;8.93;;;;;;;-2.28;76.51;102575.13;5032332;28;20135;-76
2022/03/07 02:11:19;;;;;;;21.08;8.80;;;;;;;-2.33;76.58;102572.47;5031291;28;20036;-76
2022/03/07 02:13:44;;;;;;;19.65;7.68;;;;;;;-2.36;76.40;102571.56;5048120;28;20029;-76
2022/03/07 02:16:12;;;;;;;19.17;7.63;;;;;;;-2.39;76.21;102576.78;5030274;28;20086;-76
2022/03/07 02:18:37;;;;;;;21.73;7.50;;;;;;;-2.49;75.77;102574.09;5050332;28;20029;-76
2022/03/07 02:21:13;;;;;;;21.42;7.07;;;;;;;-2.54;76.37;102567.88;5050300;28;20078;-76
2022/03/07 02:23:39;;;;;;;19.13;6.97;;;;;;;-2.58;76.13;102571.34;5049936;28;20033;-76
2022/03/07 02:26:31;;;;;;;19.45;8.07;;;;;;;-2.54;76.29;102565.25;5047563;28;20045;-76
2022/03/07 02:28:56;;;;;;;19.10;7.88;;;;;;;-2.62;75.98;102556.44;5022654;28;20520;-76
2022/03/07 02:31:22;;;;;;;20.65;7.93;;;;;;;-2.63;75.76;102558.16;5030357;28;20132;-76
2022/03/07 02:33:48;;;;;;;22.15;8.82;;;;;;;-2.63;75.35;102558.16;5059695;28;20036;-76
2022/03/07 02:36:14;;;;;;;21.17;8.40;;;;;;;-2.61;75.71;102559.94;5047133;28;20051;-76
2022/03/07 02:38:39;;;;;;;19.48;7.68;;;;;;;-2.58;75.54;102558.19;5050447;28;20400;-76
2022/03/07 02:41:04;;;;;;;21.80;8.15;;;;;;;-2.58;76.26;102563.47;5030036;28;20120;-76
2022/03/07 02:43:29;;;;;;;20.05;7.45;;;;;;;-2.57;75.96;102554.69;5031616;28;20036;-76
2022/03/07 02:45:58;;;;;;;21.83;8.13;;;;;;;-2.60;76.71;102553.81;5048776;28;20515;-76
2022/03/07 02:48:26;;;;;;;26.67;8.73;;;;;;;-2.65;76.59;102559.91;5048569;28;20143;-76
2022/03/07 02:50:52;;;;;;;19.98;7.85;;;;;;;-2.67;76.32;102558.13;5030792;28;20025;-76
2022/03/07 02:53:17;;;;;;;18.63;8.90;;;;;;;-2.71;76.70;102556.31;5048161;28;20543;-76
2022/03/07 02:55:43;;;;;;;21.85;8.88;;;;;;;-2.71;76.87;102557.22;5045845;28;20037;-76
2022/03/07 02:58:08;;;;;;;21.75;8.40;;;;;;;-2.71;77.28;102558.94;5042368;28;20507;-76
2022/03/07 03:00:34;;;;;;;22.83;7.80;;;;;;;-2.73;77.40;102555.44;5041005;28;20076;-76
2022/03/07 03:02:59;;;;;;;19.83;8.25;;;;;;;-2.78;77.39;102551.88;5050199;28;20037;-76
2022/03/07 03:05:25;;;;;;;22.95;8.32;;;;;;;-2.81;77.70;102543.09;5034495;28;20438;-76
2022/03/07 03:07:51;;;;;;;21.10;8.93;;;;;;;-2.80;77.52;102546.59;5048359;28;20052;-76
2022/03/07 03:10:17;;;;;;;21.38;8.07;;;;;;;-2.86;77.80;102552.66;5047623;28;20062;-76
2022/03/07 03:12:43;;;;;;;20.63;7.75;;;;;;;-2.88;78.03;102549.16;5030077;28;20044;-76
2022/03/07 03:15:09;;;;;;;22.17;8.80;;;;;;;-2.89;78.38;102554.41;5031423;28;20033;-76
2022/03/07 03:17:38;;;;;;;20.73;8.27;;;;;;;-2.92;78.65;102555.25;5049068;28;20381;-76
2022/03/07 03:20:04;;;;;;;20.27;8.43;;;;;;;-2.87;78.68;102547.41;5030539;28;20041;-76
2022/03/07 03:22:29;;;;;;;21.63;8.48;;;;;;;-2.84;78.91;102556.22;5048740;28;20099;-70
2022/03/07 03:24:54;;;;;;;22.13;9.32;;;;;;;-2.78;79.21;102551.88;5049443;28;20457;-76
2022/03/07 03:27:20;;;;;;;23.08;9.02;;;;;;;-2.72;78.52;102555.44;5018380;28;20044;-76
2022/03/07 03:29:45;;;;;;;21.27;8.70;;;;;;;-2.68;79.05;102553.72;5036350;28;20036;-76
2022/03/07 03:32:10;;;;;;;22.75;10.00;;;;;;;-2.70;78.28;102555.47;5047560;28;20104;-76
2022/03/07 03:34:35;;;;;;;20.77;8.38;;;;;;;-2.68;77.96;102548.44;5053693;28;20041;-76
2022/03/07 03:37:01;;;;;;;21.83;9.88;;;;;;;-2.69;77.99;102557.25;5049262;28;20043;-76
2022/03/07 03:39:26;;;;;;;22.25;9.35;;;;;;;-2.71;78.27;102551.06;5013092;28;20033;-76
2022/03/07 03:41:51;;;;;;;20.88;8.40;;;;;;;-2.74;77.53;102548.41;5029509;28;20025;-76
2022/03/07 03:44:17;;;;;;;24.42;8.77;;;;;;;-2.75;78.38;102550.16;5031192;28;20060;-76
2022/03/07 03:46:42;;;;;;;22.08;9.48;;;;;;;-2.78;77.93;102568.56;5030994;28;20036;-76
2022/03/07 03:49:07;;;;;;;21.75;9.38;;;;;;;-2.81;78.34;102553.63;5030312;28;20036;-76
2022/03/07 03:51:34;;;;;;;22.27;10.15;;;;;;;-2.83;78.59;102562.34;5048595;28;20029;-76
2022/03/07 03:54:00;;;;;;;23.50;10.48;;;;;;;-2.84;78.53;102564.13;5030788;28;20056;-76
2022/03/07 03:56:25;;;;;;;21.65;8.80;;;;;;;-2.84;78.13;102561.47;5047772;28;20515;-76
2022/03/07 03:58:50;;;;;;;24.50;10.07;;;;;;;-2.86;78.32;102563.19;5031719;28;20067;-76
2022/03/07 04:01:16;;;;;;;21.17;7.85;;;;;;;-2.86;78.23;102560.56;5019799;28;20090;-76
2022/03/07 04:03:41;;;;;;;25.98;8.52;;;;;;;-2.86;78.38;102565.81;5034235;28;20477;-76
2022/03/07 04:06:08;;;;;;;22.13;8.85;;;;;;;-2.86;79.09;102571.09;5046444;28;20091;-76
2022/03/07 04:08:37;;;;;;;21.60;9.50;;;;;;;-2.86;78.55;102568.47;5025445;28;20059;-76
2022/03/07 04:11:03;;;;;;;22.70;9.48;;;;;;;-2.86;78.23;102570.22;5047427;28;20571;-76
2022/03/07 04:13:28;;;;;;;21.92;8.82;;;;;;;-2.84;78.72;102568.47;5047938;28;20032;-76
2022/03/07 04:15:53;;;;;;;22.75;9.70;;;;;;;-2.84;78.10;102568.47;5047064;28;20377;-76
2022/03/07 04:18:18;;;;;;;21.88;9.00;;;;;;;-2.82;78.66;102572.03;5032590;28;20039;-76
2022/03/07 04:20:44;;;;;;;22.33;8.82;;;;;;;-2.85;77.95;102562.34;5051638;28;20020;-76
2022/03/07 04:23:09;;;;;;;21.60;9.65;;;;;;;-2.85;78.01;102567.59;5052567;28;20040;-76
2022/03/07 04:25:34;;;;;;;23.92;10.70;;;;;;;-2.86;78.90;102571.09;5034188;28;20488;-76
2022/03/07 04:28:00;;;;;;;29.90;10.52;;;;;;;-2.86;79.01;102562.31;5045086;28;20033;-76
2022/03/07 04:30:26;;;;;;;21.05;8.93;;;;;;;-2.86;79.05;102564.97;5050430;28;20378;-76
2022/03/07 04:32:51;;;;;;;23.38;9.95;;;;;;;-2.84;79.10;102564.13;5053552;28;20029;-76
2022/03/07 04:35:17;;;;;;;21.08;8.70;;;;;;;-2.82;78.88;102556.22;5047334;28;20045;-76
2022/03/07 04:37:42;;;;;;;21.85;9.68;;;;;;;-2.82;79.55;102553.59;5030133;28;20747;-76
2022/03/07 04:40:13;;;;;;;22.52;9.93;;;;;;;-2.84;79.48;102564.13;5032973;28;20031;-76
2022/03/07 04:42:43;;;;;;;26.92;9.45;;;;;;;-2.84;79.65;102558.84;5051033;28;20406;-76
2022/03/07 04:45:10;;;;;;;29.40;9.57;;;;;;;-2.85;79.71;102556.19;5046590;28;20029;-76
2022/03/07 04:47:36;;;;;;;23.02;9.27;;;;;;;-2.85;78.98;102554.44;5034716;28;20017;-76
2022/03/07 04:50:01;;;;;;;22.20;8.82;;;;;;;-2.83;79.23;102557.09;5033354;28;20086;-76
2022/03/07 04:52:26;;;;;;;22.60;9.38;;;;;;;-2.82;79.64;102566.75;5034003;28;20032;-76
2022/03/07 04:54:52;;;;;;;23.58;10.80;;;;;;;-2.82;79.80;102561.50;5050914;28;20035;-76
2022/03/07 04:57:17;;;;;;;21.85;9.52;;;;;;;-2.79;80.23;102563.28;5033743;28;20090;-76
2022/03/07 04:59:45;;;;;;;23.92;10.15;;;;;;;-2.79;79.93;102558.03;5051050;28;20032;-76
2022/03/07 05:02:11;;;;;;;22.50;10.27;;;;;;;-2.78;79.41;102567.66;5041921;28;20112;-76
2022/03/07 05:04:36;;;;;;;24.80;11.00;;;;;;;-2.84;79.65;102569.38;5032812;28;20116;-76
2022/03/07 05:07:01;;;;;;;24.88;10.32;;;;;;;-2.78;79.73;102562.38;5033014;28;20503;-76
2022/03/07 05:09:27;;;;;;;23.52;10.77;;;;;;;-2.79;79.80;102563.28;5032602;28;20033;-76
2022/03/07 05:11:52;;;;;;;26.95;10.10;;;;;;;-2.82;79.50;102554.47;5050220;28;20389;-76
2022/03/07 05:14:18;;;;;;;23.75;9.43;;;;;;;-2.82;78.99;102561.50;5051792;28;20041;-76
2022/03/07 05:16:43;;;;;;;22.88;8.68;;;;;;;-2.84;78.61;102563.22;5033183;28;20043;-76
2022/03/07 05:19:08;;;;;;;23.05;9.45;;;;;;;-2.88;78.61;102556.19;5032601;28;20039;-76
2022/03/07 05:21:33;;;;;;;25.55;9.93;;;;;;;-2.90;78.59;102556.16;5051552;28;20510;-76
2022/03/07 05:23:59;;;;;;;21.13;8.85;;;;;;;-2.94;78.46;102559.63;5032050;28;20036;-76
2022/03/07 05:26:24;;;;;;;21.27;9.05;;;;;;;-2.98;78.38;102560.44;5049845;28;20028;-76
2022/03/07 05:28:49;;;;;;;24.23;9.45;;;;;;;-3.00;78.62;102560.44;5050072;28;20412;-76
2022/03/07 05:31:15;;;;;;;25.60;10.65;;;;;;;-3.02;78.50;102553.38;5049324;28;20036;-76
2022/03/07 05:33:41;;;;;;;22.15;9.40;;;;;;;-3.05;78.44;102559.50;5054774;28;20062;-76
2022/03/07 05:36:06;;;;;;;22.40;9.23;;;;;;;-3.04;78.88;102560.41;5032311;28;20052;-76
2022/03/07 05:38:32;;;;;;;23.73;9.82;;;;;;;-3.08;78.15;102561.22;5046138;28;20033;-76
2022/03/07 05:40:58;;;;;;;23.95;9.77;;;;;;;-3.08;78.22;102563.84;5051432;28;20044;-76
2022/03/07 05:43:23;;;;;;;23.83;9.98;;;;;;;-3.09;78.10;102565.59;5032264;28;20031;-76
2022/03/07 05:45:48;;;;;;;24.30;10.98;;;;;;;-3.10;77.82;102565.59;5050623;28;20064;-76
2022/03/07 05:48:14;;;;;;;24.15;10.55;;;;;;;-3.13;78.52;102566.44;5046103;28;20392;-76
2022/03/07 05:50:39;;;;;;;23.60;9.73;;;;;;;-3.18;77.90;102568.13;5050639;28;20091;-76
2022/03/07 05:53:05;;;;;;;23.42;10.85;;;;;;;-3.19;77.86;102571.63;5045905;28;20067;-76
2022/03/07 05:55:31;;;;;;;23.30;10.75;;;;;;;-3.22;78.55;102561.94;5050202;28;20028;-76
2022/03/07 05:57:59;;;;;;;24.30;10.63;;;;;;;-3.24;78.82;102565.41;5031343;28;20029;-76
2022/03/07 06:00:26;;;;;;;25.02;9.52;;;;;;;-3.26;78.90;102565.41;5023131;28;20044;-76
2022/03/07 06:02:51;;;;;;;26.55;10.15;;;;;;;-3.27;79.13;102566.25;5051342;28;20083;-76
2022/03/07 06:05:16;;;;;;;23.95;10.10;;;;;;;-3.29;78.95;102569.75;5036618;28;20037;-76
2022/03/07 06:07:42;;;;;;;25.35;9.93;;;;;;;-3.30;79.13;102573.25;5026751;28;20064;-76
2022/03/07 06:10:07;;;;;;;23.05;10.35;;;;;;;-3.34;78.59;102580.19;5028976;28;20045;-76
2022/03/07 06:12:33;;;;;;;24.05;10.25;;;;;;;-3.29;79.28;102572.38;5029327;28;20036;-76
2022/03/07 06:15:03;;;;;;;25.40;11.75;;;;;;;-3.25;79.08;102582.94;5027881;28;20038;-76
2022/03/07 06:17:29;;;;;;;30.33;11.55;;;;;;;-3.24;78.98;102587.31;5029435;28;20037;-76
2022/03/07 06:19:54;;;;;;;24.33;11.05;;;;;;;-3.23;79.35;102589.09;5021595;28;20041;-76
2022/03/07 06:22:19;;;;;;;25.10;10.32;;;;;;;-3.21;80.06;102587.34;5037132;28;20037;-76
2022/03/07 06:24:44;;;;;;;25.00;11.60;;;;;;;-3.19;79.89;102590.91;5027240;28;20028;-76
2022/03/07 06:27:09;;;;;;;23.42;11.02;;;;;;;-3.13;80.24;102594.47;5028317;28;20029;-76
2022/03/07 06:29:35;;;;;;;25.02;11.02;;;;;;;-3.09;79.78;102594.53;5028748;28;20477;-76
2022/03/07 06:32:00;;;;;;;25.15;11.02;;;;;;;-3.02;80.47;102598.09;5016790;28;20034;-76
2022/03/07 06:34:25;;;;;;;25.85;11.52;;;;;;;-2.99;80.59;102601.66;5035454;28;20026;-76
2022/03/07 06:36:51;;;;;;;30.17;11.68;;;;;;;-2.95;80.49;102605.19;5029591;28;20033;-76
2022/03/07 06:39:16;;;;;;;24.65;11.20;;;;;;;-2.95;80.41;102604.34;5027220;28;20033;-76
2022/03/07 06:41:41;;;;;;;30.30;11.93;;;;;;;-2.94;80.33;102609.59;5028318;28;20032;-76
2022/03/07 06:44:06;;;;;;;40.65;11.98;;;;;;;-2.91;80.30;102608.78;5028683;28;20041;-76
2022/03/07 06:46:32;;;;;;;27.08;12.32;;;;;;;-2.88;80.57;102620.19;5030106;28;20033;-76
2022/03/07 06:48:57;;;;;;;27.23;12.43;;;;;;;-2.85;80.80;102607.06;5030227;28;20041;-76
2022/03/07 06:51:23;;;;;;;28.08;12.45;;;;;;;-2.80;80.37;102612.38;5027553;28;20041;-76
2022/03/07 06:53:48;;;;;;;25.13;11.68;;;;;;;-2.77;80.56;102611.53;5029952;28;20596;-76
2022/03/07 06:56:13;;;;;;;30.08;12.18;;;;;;;-2.73;80.32;102615.97;5028232;28;20087;-76
2022/03/07 06:58:41;;;;;;;28.00;12.13;;;;;;;-2.70;80.92;102619.50;5029851;28;20451;-76
2022/03/07 07:01:06;;;;;;;26.35;12.05;;;;;;;-2.63;80.32;102617.81;5018104;28;20037;-76
2022/03/07 07:03:31;;;;;;;26.10;12.32;;;;;;;-2.57;80.56;102617.00;5027505;28;20384;-76
2022/03/07 07:05:57;;;;;;;25.27;11.35;;;;;;;-2.49;80.38;102620.56;5028774;28;20073;-76
2022/03/07 07:08:22;;;;;;;26.10;11.50;;;;;;;-2.39;80.02;102611.91;5031128;28;20044;-76
2022/03/07 07:10:47;;;;;;;28.13;12.98;;;;;;;-2.29;79.93;102616.38;5031075;28;20037;-76
2022/03/07 07:13:14;;;;;;;25.48;11.73;;;;;;;-2.21;79.89;102607.66;5048467;28;20021;-76
2022/03/07 07:15:41;;;;;;;26.50;11.25;;;;;;;-2.12;79.71;102618.28;5049023;28;20028;-76
2022/03/07 07:18:06;;;;;;;26.67;12.63;;;;;;;-2.04;79.31;102613.94;5048203;28;20031;-76
2022/03/07 07:20:32;;;;;;;25.60;11.95;;;;;;;-1.97;79.40;102615.75;5050042;28;20108;-76
2022/03/07 07:22:57;;;;;;;26.08;11.73;;;;;;;-1.88;79.15;102616.69;5048755;28;20033;-76
2022/03/07 07:25:22;;;;;;;24.83;11.10;;;;;;;-1.80;78.39;102613.25;5008080;28;20037;-76
2022/03/07 07:27:47;;;;;;;32.63;10.85;;;;;;;-1.70;77.94;102608.03;5057809;28;20377;-76
2022/03/07 07:30:13;;;;;;;26.13;13.30;;;;;;;-1.61;77.92;102610.72;5049294;28;20377;-75
2022/03/07 07:32:39;;;;;;;25.92;11.27;;;;;;;-1.54;77.74;102609.88;5046528;28;20037;-76
2022/03/07 07:35:05;;;;;;;27.08;12.70;;;;;;;-1.47;77.31;102606.41;5049304;28;20032;-76
2022/03/07 07:37:30;;;;;;;25.02;10.32;;;;;;;-1.39;77.10;102614.38;5036715;28;20029;-77
2022/03/07 07:39:55;;;;;;;27.92;12.43;;;;;;;-1.31;76.29;102609.13;5033207;28;20036;-77
2022/03/07 07:42:21;;;;;;;28.45;11.23;;;;;;;-1.25;76.57;102609.13;5030417;28;20064;-76
2022/03/07 07:44:46;;;;;;;23.80;9.90;;;;;;;-1.19;76.10;102617.06;5031641;28;20044;-76
2022/03/07 07:47:11;;;;;;;24.38;10.98;;;;;;;-1.13;76.16;102619.75;5030519;28;20041;-76
2022/03/07 07:49:37;;;;;;;24.08;10.75;;;;;;;-1.02;75.66;102618.91;5015751;28;20485;-76
2022/03/07 07:52:03;;;;;;;23.65;10.88;;;;;;;-0.98;75.66;102618.03;5047491;28;20094;-77
2022/03/07 07:54:30;;;;;;;24.92;10.90;;;;;;;-0.92;74.83;102623.34;5036688;28;20051;-76
2022/03/07 07:56:55;;;;;;;24.35;10.43;;;;;;;-0.83;75.50;102627.78;5048028;28;20036;-76
2022/03/07 07:59:21;;;;;;;24.58;10.95;;;;;;;-0.80;74.29;102623.38;5052864;28;20392;-76
2022/03/07 08:01:46;;;;;;;23.35;10.43;;;;;;;-0.72;74.38;102619.00;5026983;28;20117;-76
2022/03/07 08:04:12;;;;;;;23.65;10.70;;;;;;;-0.65;74.53;102622.53;5057544;28;20035;-77
2022/03/07 08:06:38;;;;;;;24.63;12.27;;;;;;;-0.59;74.14;102626.94;5052442;28;20048;-76
2022/03/07 08:09:03;;;;;;;25.98;10.77;;;;;;;-0.54;72.92;102623.44;5052599;28;20079;-76
2022/03/07 08:11:29;;;;;;;27.00;11.05;;;;;;;-0.45;72.83;102634.91;5051427;28;20053;-77
2022/03/07 08:13:54;;;;;;;28.10;11.27;;;;;;;-0.39;72.61;102630.50;5052317;28;20603;-76
2022/03/07 08:16:20;;;;;;;22.45;9.88;;;;;;;-0.28;73.19;102632.25;5053361;28;20529;-76
2022/03/07 08:18:45;;;;;;;28.38;10.00;;;;;;;-0.22;72.29;102626.97;5052371;28;20078;-77
2022/03/07 08:21:11;;;;;;;22.40;9.15;;;;;;;-0.12;71.69;102633.16;5052139;28;20051;-77
2022/03/07 08:23:36;;;;;;;22.55;9.60;;;;;;;-0.04;71.23;102628.75;5050778;28;20502;-78
2022/03/07 08:26:01;;;;;;;22.73;9.50;;;;;;;0.05;70.35;102626.09;5046489;28;20044;-77
2022/03/07 08:28:27;;;;;;;24.95;9.63;;;;;;;0.14;69.68;102622.56;5033504;28;20032;-77
2022/03/07 08:30:52;;;;;;;22.92;9.35;;;;;;;0.21;69.52;102626.97;5046018;28;20037;-76
2022/03/07 08:33:17;;;;;;;21.60;9.45;;;;;;;0.29;68.43;102630.50;5048757;28;20021;-77
2022/03/07 08:35:43;;;;;;;21.45;9.02;;;;;;;0.37;68.29;102638.41;5022835;28;20035;-76
2022/03/07 08:38:08;;;;;;;21.85;8.98;;;;;;;0.42;67.34;102631.31;5050320;28;20025;-76
2022/03/07 08:40:33;;;;;;;23.25;8.48;;;;;;;0.48;67.35;102635.72;5050705;28;20039;-76
2022/03/07 08:42:58;;;;;;;22.70;9.50;;;;;;;0.52;66.90;102625.13;5050160;28;20035;-77
2022/03/07 08:45:25;;;;;;;23.17;8.93;;;;;;;0.58;66.41;102624.22;5034613;28;20707;-75
2022/03/07 08:47:51;;;;;;;24.40;9.68;;;;;;;0.65;67.10;102618.03;5019529;28;20044;-76
2022/03/07 08:50:18;;;;;;;20.20;8.32;;;;;;;0.73;66.26;102625.94;5038407;28;20029;-76
2022/03/07 08:52:44;;;;;;;22.15;8.35;;;;;;;0.79;65.38;102622.41;5044442;28;20086;-77
2022/03/07 08:55:09;;;;;;;19.38;7.60;;;;;;;0.84;65.67;102621.50;5051738;28;20528;-77
2022/03/07 08:57:35;;;;;;;21.25;8.45;;;;;;;0.89;65.22;102623.25;5051600;28;20063;-77
2022/03/07 09:00:01;;;;;;;20.95;7.85;;;;;;;0.92;65.35;102610.84;5050627;28;20025;-77
2022/03/07 09:02:26;;;;;;;25.30;8.32;;;;;;;0.99;65.05;102612.59;5038903;28;20570;-76
2022/03/07 09:04:52;;;;;;;19.45;7.60;;;;;;;1.06;64.60;102612.59;5048445;28;20029;-76
2022/03/07 09:07:17;;;;;;;23.35;7.45;;;;;;;1.11;64.26;102605.47;5047084;28;20131;-76
2022/03/07 09:09:42;;;;;;;21.90;7.53;;;;;;;1.17;63.42;102603.69;5013045;28;20036;-76
2022/03/07 09:12:08;;;;;;;20.75;8.55;;;;;;;1.25;63.14;102595.69;5022365;28;20392;-77
2022/03/07 09:14:34;;;;;;;20.42;8.43;;;;;;;1.31;62.71;102606.25;5032201;28;20036;-77
2022/03/07 09:16:59;;;;;;;22.13;7.43;;;;;;;1.38;63.10;102607.97;5031361;28;20530;-78
2022/03/07 09:19:24;;;;;;;19.90;7.65;;;;;;;1.43;62.85;102605.28;5049757;28;20436;-77
2022/03/07 09:21:50;;;;;;;19.10;6.65;;;;;;;1.47;62.01;102603.50;5051549;28;20029;-77
2022/03/07 09:24:15;;;;;;;20.02;7.10;;;;;;;1.50;60.26;102598.19;5052820;28;20086;-78
2022/03/07 09:26:40;;;;;;;20.23;6.63;;;;;;;1.56;61.20;102600.78;5051138;28;20029;-77
2022/03/07 09:29:06;;;;;;;21.02;7.85;;;;;;;1.61;61.16;102599.00;5033261;28;20045;-76
2022/03/07 09:31:31;;;;;;;18.60;6.95;;;;;;;1.68;60.97;102591.84;5049658;28;20082;-77
2022/03/07 09:33:57;;;;;;;20.35;7.30;;;;;;;1.73;59.38;102596.22;5034770;28;20036;-77
2022/03/07 09:36:22;;;;;;;17.33;6.22;;;;;;;1.80;58.54;102601.47;5049500;28;20029;-77
2022/03/07 09:38:50;;;;;;;18.85;6.72;;;;;;;1.84;58.84;102592.59;5051550;28;20033;-78
2022/03/07 09:41:18;;;;;;;18.20;6.20;;;;;;;1.87;58.13;102597.88;5040440;28;20021;-77
2022/03/07 09:43:46;;;;;;;20.10;6.43;;;;;;;1.91;57.73;102602.28;5050134;28;20449;-77
2022/03/07 09:46:14;;;;;;;18.75;6.35;;;;;;;1.95;58.00;102596.06;5030907;28;20029;-77
2022/03/07 09:48:40;;;;;;;21.00;6.72;;;;;;;2.01;57.69;102593.34;5030846;28;20021;-77
2022/03/07 09:51:06;;;;;;;18.73;6.78;;;;;;;2.05;57.60;102592.41;5049320;28;20056;-76
2022/03/07 09:53:31;;;;;;;18.70;6.70;;;;;;;2.10;58.08;102595.88;5050737;28;20076;-76
2022/03/07 09:55:57;;;;;;;17.63;5.90;;;;;;;2.13;57.43;102588.81;5038758;28;20028;-76
2022/03/07 09:58:22;;;;;;;18.75;6.90;;;;;;;2.18;56.90;102586.97;5064796;28;20072;-76
2022/03/07 10:00:47;;;;;;;18.15;6.57;;;;;;;2.20;56.42;102586.06;5054209;28;20048;-76
2022/03/07 10:03:15;;;;;;;15.75;5.72;;;;;;;2.27;57.61;102592.22;5056683;28;20083;-76
2022/03/07 10:05:43;;;;;;;18.52;6.10;;;;;;;2.32;56.46;102574.44;5051654;28;20834;-76
2022/03/07 10:08:10;;;;;;;17.48;6.10;;;;;;;2.36;56.47;102573.53;5047252;28;20060;-76
2022/03/07 10:10:38;;;;;;;17.80;5.60;;;;;;;2.39;56.21;102570.84;5066912;28;20037;-76
2022/03/07 10:13:12;;;;;;;16.77;5.88;;;;;;;2.42;55.96;102572.59;5048372;28;20037;-76
2022/03/07 10:15:39;;;;;;;15.43;5.63;;;;;;;2.48;55.72;102568.97;5028733;28;20052;-76
2022/03/07 10:18:09;;;;;;;15.38;6.30;;;;;;;2.52;55.30;102568.03;5028986;28;20112;-76
2022/03/07 10:20:34;;;;;;;21.38;6.07;;;;;;;2.56;54.96;102559.13;5030557;28;20108;-76
2022/03/07 10:23:00;;;;;;;21.77;6.13;;;;;;;2.64;55.88;102561.72;5046900;28;20428;-76
2022/03/07 10:25:31;;;;;;;15.52;5.50;;;;;;;2.70;55.37;102559.84;5034336;28;20035;-76
2022/03/07 10:27:59;;;;;;;12.35;4.78;;;;;;;2.73;54.46;102557.16;5031576;28;20055;-76
2022/03/07 10:30:28;;;;;;;16.42;5.65;;;;;;;2.76;54.44;102565.06;5049488;28;20024;-76
2022/03/07 10:32:59;;;;;;;14.57;4.55;;;;;;;2.79;54.82;102553.53;5042620;28;20025;-77
2022/03/07 10:35:27;;;;;;;16.83;5.20;;;;;;;2.86;54.20;102559.66;5047085;28;20066;-76
2022/03/07 10:38:05;;;;;;;13.02;4.45;;;;;;;2.90;54.61;102556.03;5047968;28;20021;-76
2022/03/07 10:40:32;;;;;;;16.30;4.65;;;;;;;2.94;54.16;102552.44;5028579;28;20032;-76
2022/03/07 10:43:00;;;;;;;13.27;4.55;;;;;;;2.98;53.78;102557.69;5051876;28;20037;-76
2022/03/07 10:45:27;;;;;;;14.02;4.38;;;;;;;3.02;54.37;102552.38;5047409;28;20420;-77
2022/03/07 10:48:00;;;;;;;17.63;5.32;;;;;;;3.03;53.99;102541.72;5046931;28;20484;-76
2022/03/07 10:50:28;;;;;;;14.90;5.20;;;;;;;3.08;55.03;102534.53;5047280;28;20039;-76
2022/03/07 10:53:03;;;;;;;14.52;4.95;;;;;;;3.13;53.99;102529.16;5035134;28;20040;-76
2022/03/07 10:55:30;;;;;;;21.20;5.82;;;;;;;3.17;55.10;102527.34;5029468;28;20484;-76
2022/03/07 10:58:10;;;;;;;16.70;5.22;;;;;;;3.24;54.26;102523.69;5030740;28;20028;-76
2022/03/07 11:00:51;;;;;;;14.35;5.07;;;;;;;3.32;55.01;102511.13;5029983;28;20021;-76
2022/03/07 11:03:26;;;;;;;18.52;5.38;;;;;;;3.39;54.74;102519.91;5046426;28;20098;-76
2022/03/07 11:05:52;;;;;;;18.83;5.68;;;;;;;3.43;54.05;102516.31;5047246;28;20115;-76
2022/03/07 11:08:20;;;;;;;17.52;5.30;;;;;;;3.47;54.53;102510.91;5047600;28;20547;-76
2022/03/07 11:10:47;;;;;;;17.65;5.32;;;;;;;3.49;53.30;102500.25;5045445;28;20033;-76